Time;durP1;ratioP1;P1;durP2;ratioP2;P2;SDS_P1;SDS_P2;PMS_P1;PMS_P2;Temp;Humidity;BMP_temperature;BMP_pressure;BME280_temperature;BME280_humidity;BME280_pressure;Samples;Min_cycle;Max_cycle;Signal;HPM_P1;HPM_P2
2023/01/16 00:00:54;;;;;;;4.40;0.67;;;;;3.60;99121.00;;;;10403229;28;21094;-79
2023/01/16 00:05:56;;;;;;;6.87;0.90;;;;;3.60;99118.00;;;;10436244;28;20691;-79
2023/01/16 00:10:58;;;;;;;3.57;0.80;;;;;3.50;99100.00;;;;10419181;28;20276;-79
2023/01/16 00:16:00;;;;;;;2.27;0.80;;;;;3.50;99086.00;;;;10425495;28;20199;-78
2023/01/16 00:21:02;;;;;;;4.70;0.70;;;;;3.60;99079.00;;;;10395475;28;20199;-78
2023/01/16 00:26:06;;;;;;;5.53;0.70;;;;;3.60;99058.00;;;;10410447;28;20206;-78
2023/01/16 00:31:08;;;;;;;2.97;0.87;;;;;3.60;99044.00;;;;10416958;28;20304;-79
2023/01/16 00:36:11;;;;;;;1.90;0.90;;;;;3.50;99037.00;;;;10390252;28;20295;-79
2023/01/16 00:41:13;;;;;;;2.13;0.60;;;;;3.40;99025.00;;;;10360905;28;20227;-79
2023/01/16 00:46:15;;;;;;;0.97;0.50;;;;;3.40;99008.00;;;;10400960;28;20862;-79
2023/01/16 00:51:17;;;;;;;1.77;0.70;;;;;3.50;99001.00;;;;10393275;28;20406;-79
2023/01/16 00:56:19;;;;;;;5.73;0.57;;;;;3.50;98977.00;;;;10377820;28;20653;-79
2023/01/16 01:01:21;;;;;;;5.50;0.77;;;;;3.50;98963.00;;;;10396359;28;20276;-79
2023/01/16 01:06:23;;;;;;;2.73;0.60;;;;;3.60;98938.00;;;;10418878;28;20206;-78
2023/01/16 01:11:25;;;;;;;4.70;0.83;;;;;3.60;98924.00;;;;10418073;28;20279;-79
2023/01/16 01:16:27;;;;;;;2.10;0.90;;;;;3.50;98905.00;;;;10376604;28;20203;-79
2023/01/16 01:21:29;;;;;;;1.97;0.83;;;;;3.60;98885.00;;;;10377651;28;20241;-79
2023/01/16 01:26:31;;;;;;;1.20;0.70;;;;;3.70;98874.00;;;;10376938;28;20213;-79
2023/01/16 01:31:33;;;;;;;5.97;1.17;;;;;3.80;98848.00;;;;10376248;28;20198;-79
2023/01/16 01:36:35;;;;;;;3.87;1.10;;;;;3.80;98830.00;;;;10383571;28;20208;-78
2023/01/16 01:41:37;;;;;;;3.40;1.23;;;;;3.90;98811.00;;;;10415639;28;20187;-79
2023/01/16 01:46:46;;;;;;;4.37;1.30;;;;;3.90;98793.00;;;;10412673;28;20712;-79
2023/01/16 01:51:51;;;;;;;1.90;1.10;;;;;3.90;98787.00;;;;10389977;28;20210;-78
2023/01/16 01:57:03;;;;;;;3.87;1.50;;;;;3.90;98770.00;;;;10396400;28;20206;-78
2023/01/16 02:02:09;;;;;;;4.23;1.17;;;;;3.90;98754.00;;;;10379654;28;20199;-79
2023/01/16 02:07:15;;;;;;;4.70;1.10;;;;;3.90;98744.00;;;;10392420;28;20194;-79
2023/01/16 02:12:18;;;;;;;3.13;1.07;;;;;4.00;98720.00;;;;10359764;28;20590;-79
2023/01/16 02:23:35;;;;;;;3.20;1.70;;;;;4.20;98670.00;;;;10331053;28;20202;-79
2023/01/16 02:29:15;;;;;;;1.47;0.73;;;;;4.30;98651.00;;;;10382319;28;20233;-78
2023/01/16 02:34:48;;;;;;;4.33;1.63;;;;;4.40;98630.00;;;;10424521;28;20190;-79
2023/01/16 02:40:09;;;;;;;4.97;1.63;;;;;4.50;98619.00;;;;10415444;28;20179;-79
2023/01/16 02:45:33;;;;;;;4.70;1.13;;;;;4.60;98599.00;;;;10431537;28;20205;-79
2023/01/16 02:51:12;;;;;;;6.93;1.20;;;;;4.70;98587.00;;;;10407521;28;20677;-79
2023/01/16 02:56:23;;;;;;;4.60;1.53;;;;;4.80;98549.00;;;;10366112;28;20194;-79
2023/01/16 03:01:25;;;;;;;2.40;0.90;;;;;4.80;98522.00;;;;10363960;28;20691;-78
2023/01/16 03:06:42;;;;;;;5.43;1.00;;;;;4.90;98504.00;;;;10404163;28;20198;-79
2023/01/16 03:11:52;;;;;;;4.40;1.10;;;;;5.00;98500.00;;;;10420703;28;20222;-79
2023/01/16 03:17:18;;;;;;;6.63;1.33;;;;;5.00;98483.00;;;;10396422;28;20210;-78
2023/01/16 03:22:38;;;;;;;6.27;1.10;;;;;5.00;98465.00;;;;10394081;28;20198;-79
2023/01/16 03:27:40;;;;;;;3.20;1.07;;;;;5.10;98441.00;;;;10395759;28;20233;-79
2023/01/16 03:32:46;;;;;;;4.20;1.20;;;;;5.10;98422.00;;;;10395792;28;20214;-78
2023/01/16 03:37:52;;;;;;;3.67;0.67;;;;;5.10;98391.00;;;;10404954;28;20194;-79
2023/01/16 03:43:27;;;;;;;6.90;1.23;;;;;5.10;98362.00;;;;10407665;28;20186;-79
2023/01/16 03:48:42;;;;;;;7.17;0.63;;;;;5.10;98352.00;;;;10378711;28;20199;-78
2023/01/16 03:53:50;;;;;;;5.40;1.00;;;;;5.10;98333.00;;;;10419621;28;20200;-78
2023/01/16 03:58:54;;;;;;;2.33;1.17;;;;;5.20;98316.00;;;;10404045;28;20209;-78
2023/01/16 04:04:05;;;;;;;4.90;1.00;;;;;5.20;98293.00;;;;10377941;28;20190;-78
2023/01/16 04:09:13;;;;;;;1.70;0.80;;;;;5.20;98273.00;;;;10415586;28;20288;-77
2023/01/16 04:14:18;;;;;;;4.30;0.87;;;;;5.30;98249.00;;;;10418084;28;20720;-78
2023/01/16 04:19:22;;;;;;;1.27;0.57;;;;;5.30;98217.00;;;;10435315;28;20240;-78
2023/01/16 04:24:24;;;;;;;2.70;0.83;;;;;5.30;98193.00;;;;10418012;28;20265;-78
2023/01/16 04:29:26;;;;;;;3.13;1.17;;;;;5.20;98165.00;;;;10418502;28;20191;-79
2023/01/16 04:34:28;;;;;;;3.20;0.70;;;;;5.20;98138.00;;;;10400642;28;20195;-79
2023/01/16 04:39:30;;;;;;;3.33;0.97;;;;;5.20;98108.00;;;;10395941;28;20228;-78
2023/01/16 04:44:32;;;;;;;2.93;0.97;;;;;5.20;98091.00;;;;10416601;28;20263;-79
2023/01/16 04:49:33;;;;;;;3.67;0.63;;;;;5.20;98070.00;;;;10400058;28;20313;-78
2023/01/16 04:54:35;;;;;;;5.00;1.07;;;;;5.20;98051.00;;;;10400488;28;20183;-79
2023/01/16 04:59:37;;;;;;;1.40;0.60;;;;;5.20;98029.00;;;;10416648;28;20624;-78
2023/01/16 05:04:39;;;;;;;3.27;1.00;;;;;5.10;98007.00;;;;10389771;28;20218;-79
2023/01/16 05:09:41;;;;;;;3.30;1.03;;;;;5.10;97989.00;;;;10391551;28;20206;-79
2023/01/16 05:14:43;;;;;;;1.30;0.50;;;;;5.00;97978.00;;;;10394582;28;20234;-79
2023/01/16 05:19:45;;;;;;;3.60;1.00;;;;;5.00;97960.00;;;;10401946;28;20237;-78
2023/01/16 05:24:47;;;;;;;1.30;0.70;;;;;5.00;97946.00;;;;10399363;28;20661;-78
2023/01/16 05:29:49;;;;;;;4.70;0.93;;;;;4.90;97925.00;;;;10406499;28;20215;-79
2023/01/16 05:34:51;;;;;;;2.33;0.70;;;;;4.90;97907.00;;;;10442525;28;20190;-79
2023/01/16 05:39:56;;;;;;;3.07;0.70;;;;;5.00;97897.00;;;;10411709;28;20202;-79
2023/01/16 05:44:58;;;;;;;2.23;0.50;;;;;4.90;97879.00;;;;10418087;28;20198;-78
2023/01/16 05:50:01;;;;;;;2.33;0.60;;;;;4.90;97842.00;;;;10415421;28;20218;-79
2023/01/16 05:55:03;;;;;;;4.13;0.53;;;;;4.90;97822.00;;;;10381070;28;20195;-79
2023/01/16 06:00:06;;;;;;;1.90;0.50;;;;;4.90;97812.00;;;;10402579;28;20668;-78
2023/01/16 06:05:09;;;;;;;0.63;0.50;;;;;4.80;97801.00;;;;10427477;28;20205;-78
2023/01/16 06:10:10;;;;;;;2.00;0.43;;;;;4.70;97775.00;;;;10420520;28;20210;-78
2023/01/16 06:15:12;;;;;;;0.83;0.40;;;;;4.70;97748.00;;;;10407761;28;20202;-79
2023/01/16 06:20:15;;;;;;;0.80;0.50;;;;;4.70;97712.00;;;;10432094;28;20641;-78
2023/01/16 06:25:17;;;;;;;4.07;0.43;;;;;4.60;97703.00;;;;10426908;28;20209;-78
2023/01/16 06:30:19;;;;;;;3.40;0.40;;;;;4.60;97698.00;;;;10422112;28;20229;-78
2023/01/16 06:35:21;;;;;;;1.93;0.43;;;;;4.60;97701.00;;;;10405637;28;20190;-78
2023/01/16 06:40:23;;;;;;;1.80;0.30;;;;;4.60;97683.00;;;;10406520;28;20183;-79
2023/01/16 06:45:25;;;;;;;1.17;0.50;;;;;4.50;97676.00;;;;10441968;28;20209;-79
2023/01/16 06:50:27;;;;;;;1.90;0.50;;;;;4.50;97673.00;;;;10464472;28;20251;-79
2023/01/16 06:55:29;;;;;;;0.97;0.23;;;;;4.50;97658.00;;;;10448490;28;20437;-78
2023/01/16 07:00:31;;;;;;;2.13;0.40;;;;;4.50;97655.00;;;;10432847;28;20270;-78
2023/01/16 07:05:33;;;;;;;0.20;0.20;;;;;4.50;97636.00;;;;10422663;28;20194;-78
2023/01/16 07:10:36;;;;;;;1.83;0.60;;;;;4.40;97633.00;;;;10422443;28;20287;-78
2023/01/16 07:26:47;;;;;;;0.77;0.40;;;;;4.30;97604.00;;;;10328768;28;20210;-78
2023/01/16 07:31:49;;;;;;;0.60;0.50;;;;;4.30;97605.00;;;;10382219;28;20233;-78
2023/01/16 07:36:51;;;;;;;1.00;0.50;;;;;4.30;97590.00;;;;10421792;28;20566;-78
2023/01/16 07:41:53;;;;;;;1.13;0.40;;;;;4.30;97574.00;;;;10421587;28;20190;-78
2023/01/16 07:46:59;;;;;;;0.40;0.40;;;;;4.30;97557.00;;;;10437986;28;20198;-78
2023/01/16 07:52:01;;;;;;;0.60;0.53;;;;;4.20;97552.00;;;;10421363;28;20227;-79
2023/01/16 07:57:03;;;;;;;1.80;0.63;;;;;4.20;97552.00;;;;10405344;28;20194;-79
2023/01/16 08:02:05;;;;;;;0.53;0.40;;;;;4.20;97538.00;;;;10420527;28;20175;-78
2023/01/16 08:07:08;;;;;;;1.67;0.77;;;;;4.20;97528.00;;;;10420477;28;20730;-79
2023/01/16 08:12:10;;;;;;;1.23;1.00;;;;;4.30;97524.00;;;;10436983;28;20268;-78
2023/01/16 08:17:11;;;;;;;1.43;0.43;;;;;4.40;97519.00;;;;10420165;28;20202;-78
2023/01/16 08:22:13;;;;;;;1.23;0.77;;;;;4.40;97520.00;;;;10403416;28;20655;-79
2023/01/16 08:27:15;;;;;;;1.60;0.70;;;;;4.50;97504.00;;;;10378127;28;20214;-78
2023/01/16 08:32:17;;;;;;;1.30;0.73;;;;;4.60;97496.00;;;;10388619;28;20303;-78
2023/01/16 08:37:19;;;;;;;1.00;0.83;;;;;4.90;97486.00;;;;10412098;28;20285;-78
2023/01/16 08:53:04;;;;;;;1.20;0.83;;;;;5.30;97463.00;;;;10421112;28;20287;-78
2023/01/16 08:58:06;;;;;;;0.50;0.50;;;;;5.20;97452.00;;;;10433376;28;20190;-78
2023/01/16 09:03:08;;;;;;;1.07;0.70;;;;;5.30;97447.00;;;;10397469;28;20236;-78
2023/01/16 09:08:10;;;;;;;3.03;1.20;;;;;5.20;97457.00;;;;10400815;28;20197;-78
2023/01/16 09:18:40;;;;;;;2.97;1.73;;;;;5.10;97423.00;;;;10392325;28;20209;-78
2023/01/16 09:23:42;;;;;;;3.13;1.30;;;;;5.00;97417.00;;;;10416976;28;20183;-78
2023/01/16 09:28:44;;;;;;;5.60;2.20;;;;;5.20;97424.00;;;;10432617;28;20206;-78
2023/01/16 09:33:51;;;;;;;4.30;1.87;;;;;5.50;97428.00;;;;10414745;28;20213;-78
2023/01/16 09:38:53;;;;;;;2.63;1.20;;;;;5.40;97408.00;;;;10415166;28;20182;-78
2023/01/16 09:43:55;;;;;;;6.40;1.60;;;;;5.60;97391.00;;;;10417250;28;20249;-78
2023/01/16 09:49:05;;;;;;;1.70;1.00;;;;;6.60;97377.00;;;;10399447;28;20248;-78
2023/01/16 09:59:54;;;;;;;1.90;1.20;;;;;7.20;97358.00;;;;10424162;28;20186;-78
2023/01/16 10:04:57;;;;;;;1.40;0.40;;;;;7.10;97358.00;;;;10406068;28;20198;-76
2023/01/16 10:10:13;;;;;;;1.90;1.40;;;;;7.30;97352.00;;;;10399130;28;20195;-79
2023/01/16 10:15:36;;;;;;;2.07;1.17;;;;;7.40;97348.00;;;;10439304;28;20205;-78
2023/01/16 10:21:09;;;;;;;0.67;0.50;;;;;7.60;97336.00;;;;10447504;28;20273;-78
2023/01/16 10:26:51;;;;;;;2.13;1.03;;;;;7.70;97320.00;;;;10407666;28;20210;-79
2023/01/16 10:32:02;;;;;;;0.60;0.40;;;;;7.20;97300.00;;;;10417209;28;20206;-78
2023/01/16 10:37:05;;;;;;;1.50;0.70;;;;;6.90;97303.00;;;;10439021;28;20256;-78
2023/01/16 10:53:06;;;;;;;0.30;0.30;;;;;6.10;97303.00;;;;10438693;28;20205;-78
2023/01/16 10:58:36;;;;;;;0.30;0.30;;;;;5.90;97306.00;;;;10433155;28;20182;-78
2023/01/16 11:03:41;;;;;;;0.73;0.33;;;;;5.80;97296.00;;;;10418719;28;20207;-78
2023/01/16 11:08:47;;;;;;;0.63;0.40;;;;;5.90;97284.00;;;;10408193;28;20202;-78
2023/01/16 11:19:22;;;;;;;1.03;0.60;;;;;6.10;97277.00;;;;10412179;28;20205;-78
2023/01/16 11:24:33;;;;;;;3.10;0.50;;;;;6.00;97259.00;;;;10402372;28;20198;-78
2023/01/16 11:29:39;;;;;;;0.33;0.33;;;;;6.20;97259.00;;;;10421094;28;20228;-78
2023/01/16 11:34:47;;;;;;;0.37;0.37;;;;;6.50;97249.00;;;;10420882;28;20289;-78
2023/01/16 11:39:53;;;;;;;0.80;0.60;;;;;6.40;97242.00;;;;10419277;28;20556;-77
2023/01/16 11:50:32;;;;;;;0.97;0.80;;;;;6.30;97222.00;;;;10451859;28;20247;-78
2023/01/16 11:55:47;;;;;;;0.93;0.60;;;;;6.40;97221.00;;;;10437627;28;20268;-78
2023/01/16 12:00:56;;;;;;;1.00;0.60;;;;;6.30;97216.00;;;;10400893;28;20668;-78
2023/01/16 12:06:26;;;;;;;2.30;0.50;;;;;6.40;97209.00;;;;10402999;28;20213;-78
2023/01/16 12:11:54;;;;;;;0.43;0.37;;;;;6.20;97212.00;;;;10418556;28;20756;-78
2023/01/16 12:16:55;;;;;;;0.60;0.60;;;;;6.10;97212.00;;;;10407458;28;20212;-78
2023/01/16 12:22:16;;;;;;;3.10;0.60;;;;;6.20;97199.00;;;;10412938;28;20198;-78
2023/01/16 12:27:43;;;;;;;0.77;0.60;;;;;6.10;97200.00;;;;10418823;28;20194;-77
2023/01/16 12:33:18;;;;;;;0.80;0.50;;;;;6.10;97198.00;;;;10417746;28;20243;-78
2023/01/16 12:38:40;;;;;;;0.60;0.60;;;;;6.50;97187.00;;;;10402396;28;20198;-78
2023/01/16 12:44:02;;;;;;;0.73;0.60;;;;;6.90;97169.00;;;;10384991;28;20191;-78
2023/01/16 12:49:04;;;;;;;0.50;0.40;;;;;7.00;97162.00;;;;10397653;28;20660;-78
2023/01/16 12:54:09;;;;;;;0.80;0.50;;;;;7.00;97158.00;;;;10401631;28;20682;-78
2023/01/16 12:59:34;;;;;;;1.40;0.50;;;;;6.90;97163.00;;;;10422797;28;20195;-78
2023/01/16 13:04:49;;;;;;;0.50;0.50;;;;;7.00;97165.00;;;;10405960;28;20224;-77
2023/01/16 13:15:35;;;;;;;0.70;0.60;;;;;6.80;97163.00;;;;10420137;28;20243;-78
2023/01/16 13:20:38;;;;;;;0.50;0.50;;;;;6.60;97151.00;;;;10449872;28;20242;-78
2023/01/16 13:25:46;;;;;;;1.17;0.63;;;;;6.80;97140.00;;;;10408560;28;20739;-78
2023/01/16 13:30:54;;;;;;;0.77;0.40;;;;;7.20;97133.00;;;;10431086;28;20225;-78
2023/01/16 13:36:17;;;;;;;2.63;0.53;;;;;7.20;97137.00;;;;10399811;28;20194;-78
2023/01/16 13:41:22;;;;;;;2.07;0.77;;;;;7.00;97132.00;;;;10433177;28;20716;-78
2023/01/16 13:46:25;;;;;;;0.50;0.50;;;;;6.60;97127.00;;;;10414612;28;20198;-78
2023/01/16 13:51:28;;;;;;;1.40;1.30;;;;;6.60;97130.00;;;;10400203;28;20206;-78
2023/01/16 13:56:31;;;;;;;1.80;0.90;;;;;6.70;97124.00;;;;10416634;28;20201;-78
2023/01/16 14:01:39;;;;;;;1.57;0.80;;;;;6.70;97123.00;;;;10416969;28;20190;-79
2023/01/16 14:06:48;;;;;;;2.67;0.80;;;;;6.70;97117.00;;;;10383774;28;20730;-78
2023/01/16 14:12:12;;;;;;;2.20;0.97;;;;;6.60;97129.00;;;;10399939;28;20214;-78
2023/01/16 14:17:17;;;;;;;1.20;0.87;;;;;6.60;97121.00;;;;10406256;28;20201;-78
2023/01/16 14:27:38;;;;;;;3.47;1.80;;;;;6.30;97120.00;;;;10432220;28;20649;-78
2023/01/16 14:32:46;;;;;;;0.83;0.83;;;;;6.10;97124.00;;;;10399645;28;20206;-79
2023/01/16 14:37:59;;;;;;;2.43;2.23;;;;;5.90;97127.00;;;;10412293;28;20198;-78
2023/01/16 14:59:15;;;;;;;2.23;1.50;;;;;5.70;97120.00;;;;10419284;28;20209;-78
2023/01/16 15:04:21;;;;;;;22.90;11.63;;;;;5.60;97118.00;;;;10438054;28;20218;-78
2023/01/16 15:09:27;;;;;;;4.57;2.77;;;;;5.50;97123.00;;;;10421802;28;20199;-78
2023/01/16 15:14:29;;;;;;;2.93;1.90;;;;;5.40;97115.00;;;;10423119;28;20202;-78
2023/01/16 15:25:02;;;;;;;2.77;2.10;;;;;5.30;97129.00;;;;10448546;28;20208;-78
2023/01/16 15:30:07;;;;;;;2.37;1.90;;;;;5.30;97126.00;;;;10421606;28;20203;-78
2023/01/16 15:35:16;;;;;;;2.87;1.80;;;;;5.20;97143.00;;;;10434939;28;20195;-78
2023/01/16 15:40:27;;;;;;;2.60;2.13;;;;;5.20;97165.00;;;;10413128;28;20573;-78
2023/01/16 15:50:54;;;;;;;2.13;1.63;;;;;4.90;97185.00;;;;10410468;28;20216;-79
2023/01/16 15:56:03;;;;;;;3.37;2.13;;;;;4.60;97214.00;;;;10384090;28;20225;-78
2023/01/16 16:01:05;;;;;;;2.27;1.80;;;;;4.30;97213.00;;;;10424925;28;20197;-78
2023/01/16 16:06:13;;;;;;;2.93;2.40;;;;;4.10;97246.00;;;;10418020;28;20202;-78
2023/01/16 16:28:13;;;;;;;3.37;1.40;;;;;4.10;97258.00;;;;10348385;28;20216;-78
2023/01/16 16:33:18;;;;;;;0.80;0.80;;;;;4.00;97330.00;;;;10385064;28;20668;-79
2023/01/16 16:38:44;;;;;;;0.80;0.80;;;;;4.00;97337.00;;;;10407415;28;20186;-79
2023/01/16 16:43:59;;;;;;;0.60;0.50;;;;;3.90;97360.00;;;;10424355;28;20190;-79
2023/01/16 16:49:07;;;;;;;0.93;0.90;;;;;3.90;97378.00;;;;10425167;28;20197;-79
2023/01/16 16:54:13;;;;;;;0.80;0.80;;;;;3.80;97399.00;;;;10390795;28;20253;-78
2023/01/16 16:59:21;;;;;;;0.70;0.70;;;;;3.90;97412.00;;;;10409337;28;20202;-78
2023/01/16 17:04:25;;;;;;;4.87;1.37;;;;;3.90;97429.00;;;;10393137;28;20278;-78
2023/01/16 17:09:31;;;;;;;0.87;0.63;;;;;3.90;97446.00;;;;10399326;28;20280;-79
2023/01/16 17:14:33;;;;;;;3.13;0.90;;;;;3.90;97464.00;;;;10412341;28;20229;-79
2023/01/16 17:19:34;;;;;;;0.83;0.60;;;;;3.90;97492.00;;;;10440401;28;20190;-79
2023/01/16 17:24:37;;;;;;;4.67;0.80;;;;;3.90;97470.00;;;;10411314;28;20657;-79
2023/01/16 17:29:42;;;;;;;4.33;0.70;;;;;3.90;97522.00;;;;10396454;28;20203;-78
2023/01/16 17:34:44;;;;;;;1.83;0.97;;;;;3.90;97522.00;;;;10442906;28;20206;-79
2023/01/16 17:39:46;;;;;;;0.40;0.40;;;;;4.00;97554.00;;;;10400535;28;20198;-79
2023/01/16 17:50:21;;;;;;;2.07;1.33;;;;;4.00;97535.00;;;;10441258;28;20189;-79
2023/01/16 18:00:44;;;;;;;0.60;0.57;;;;;3.60;97608.00;;;;10415710;28;20243;-79
2023/01/16 18:05:46;;;;;;;0.77;0.77;;;;;3.50;97620.00;;;;10417016;28;20175;-79
2023/01/16 18:10:48;;;;;;;0.43;0.30;;;;;3.40;97625.00;;;;10433123;28;20208;-78
2023/01/16 18:26:33;;;;;;;0.40;0.40;;;;;3.30;97659.00;;;;10450930;28;20221;-78
2023/01/16 18:31:35;;;;;;;1.10;0.33;;;;;3.30;97678.00;;;;10408774;28;20245;-79
2023/01/16 18:36:37;;;;;;;0.50;0.50;;;;;3.30;97690.00;;;;10440610;28;20194;-79
2023/01/16 19:03:01;;;;;;;2.90;0.80;;;;;3.10;97734.00;;;;10438767;28;20197;-78
2023/01/16 19:08:03;;;;;;;0.73;0.73;;;;;3.20;97729.00;;;;10408476;28;20224;-79
2023/01/16 19:13:06;;;;;;;3.63;1.87;;;;;3.20;97730.00;;;;10423272;28;20202;-79
2023/01/16 19:18:08;;;;;;;6.27;1.40;;;;;3.30;97728.00;;;;10412362;28;20197;-79
2023/01/16 19:23:10;;;;;;;3.13;1.07;;;;;3.40;97736.00;;;;10387161;28;20193;-78
2023/01/16 19:28:12;;;;;;;1.20;0.90;;;;;3.50;97739.00;;;;10421051;28;20695;-78
2023/01/16 19:33:15;;;;;;;2.30;1.27;;;;;3.50;97748.00;;;;10437297;28;20194;-78
2023/01/16 19:38:17;;;;;;;2.77;0.90;;;;;3.50;97755.00;;;;10421101;28;20182;-79
2023/01/16 19:48:40;;;;;;;3.97;1.23;;;;;3.40;97774.00;;;;10420245;28;20217;-79
2023/01/16 19:53:43;;;;;;;5.20;1.30;;;;;3.40;97781.00;;;;10436992;28;20206;-79
2023/01/16 19:58:45;;;;;;;2.50;1.00;;;;;3.40;97790.00;;;;10419909;28;20190;-79
2023/01/16 20:03:47;;;;;;;1.77;1.03;;;;;3.40;97802.00;;;;10436313;28;20191;-78
2023/01/16 20:08:49;;;;;;;3.30;0.83;;;;;3.40;97814.00;;;;10435860;28;20281;-78
2023/01/16 20:13:52;;;;;;;1.80;0.63;;;;;3.40;97831.00;;;;10403427;28;20646;-78
2023/01/16 20:18:54;;;;;;;1.70;1.00;;;;;3.30;97834.00;;;;10419096;28;20198;-78
2023/01/16 20:23:56;;;;;;;3.43;1.37;;;;;3.30;97830.00;;;;10436385;28;20278;-78
2023/01/16 20:28:59;;;;;;;4.57;1.57;;;;;3.30;97835.00;;;;10419463;28;20202;-78
2023/01/16 20:34:01;;;;;;;2.20;0.50;;;;;3.20;97846.00;;;;10419403;28;20202;-78
2023/01/16 20:39:05;;;;;;;1.60;0.67;;;;;3.10;97847.00;;;;10401712;28;20648;-79
2023/01/16 20:49:37;;;;;;;0.67;0.40;;;;;2.90;97860.00;;;;10418661;28;20545;-79
2023/01/16 20:54:39;;;;;;;1.53;0.77;;;;;3.00;97882.00;;;;10434973;28;20214;-79
2023/01/16 20:59:41;;;;;;;1.53;0.97;;;;;2.90;97884.00;;;;10434418;28;20183;-79
2023/01/16 21:04:43;;;;;;;4.30;0.90;;;;;2.90;97888.00;;;;10417897;28;20200;-79
2023/01/16 21:09:45;;;;;;;1.20;1.00;;;;;2.90;97890.00;;;;10417763;28;20198;-80
2023/01/16 21:14:48;;;;;;;1.90;1.27;;;;;2.90;97905.00;;;;10434509;28;20220;-79
2023/01/16 21:25:13;;;;;;;1.07;0.60;;;;;2.90;97863.00;;;;10417203;28;20198;-79
2023/01/16 21:30:15;;;;;;;0.87;0.70;;;;;2.80;97923.00;;;;10417015;28;20248;-79
2023/01/16 21:35:17;;;;;;;0.83;0.43;;;;;2.80;97943.00;;;;10417494;28;20208;-80
2023/01/16 21:40:19;;;;;;;2.87;1.17;;;;;2.70;97941.00;;;;10416727;28;20679;-78
2023/01/16 21:50:45;;;;;;;3.90;0.50;;;;;2.30;97954.00;;;;10408370;28;20190;-79
2023/01/16 21:55:51;;;;;;;0.47;0.40;;;;;2.20;97960.00;;;;10379123;28;20229;-79
2023/01/16 22:00:53;;;;;;;1.73;0.60;;;;;2.20;97967.00;;;;10406141;28;20190;-80
2023/01/16 22:05:56;;;;;;;3.30;0.80;;;;;2.20;97971.00;;;;10408063;28;20194;-79
2023/01/16 22:21:42;;;;;;;2.97;0.97;;;;;2.30;98007.00;;;;10388189;28;20214;-79
2023/01/16 22:26:44;;;;;;;3.40;0.83;;;;;2.40;98013.00;;;;10439684;28;20194;-79
2023/01/16 22:31:50;;;;;;;0.93;0.50;;;;;2.50;98014.00;;;;10421374;28;20275;-79
2023/01/16 22:36:52;;;;;;;2.27;0.80;;;;;2.50;98032.00;;;;10406925;28;20188;-79
2023/01/16 22:41:54;;;;;;;6.57;0.77;;;;;2.50;98036.00;;;;10427824;28;20190;-79
2023/01/16 22:46:56;;;;;;;1.30;0.80;;;;;2.40;98047.00;;;;10402312;28;20195;-79
2023/01/16 22:51:58;;;;;;;2.30;1.00;;;;;2.40;98056.00;;;;10397751;28;20222;-79
2023/01/16 22:57:00;;;;;;;2.57;0.70;;;;;2.30;98058.00;;;;10365542;28;20187;-79
2023/01/16 23:02:02;;;;;;;1.30;0.70;;;;;2.10;98053.00;;;;10396362;28;20190;-80
2023/01/16 23:07:05;;;;;;;0.60;0.50;;;;;2.00;98060.00;;;;10379815;28;20221;-79
2023/01/16 23:12:08;;;;;;;0.70;0.70;;;;;1.90;98063.00;;;;10364726;28;20207;-79
2023/01/16 23:17:10;;;;;;;4.97;0.77;;;;;1.90;98079.00;;;;10413481;28;20198;-79
2023/01/16 23:22:12;;;;;;;1.20;0.47;;;;;1.80;98086.00;;;;10418752;28;20240;-80
2023/01/16 23:27:14;;;;;;;2.57;0.73;;;;;1.70;98080.00;;;;10414622;28;20205;-79
2023/01/16 23:32:16;;;;;;;0.70;0.70;;;;;1.70;98084.00;;;;10414500;28;20695;-79
2023/01/16 23:37:18;;;;;;;2.20;1.30;;;;;1.60;98083.00;;;;10403279;28;20263;-79
2023/01/16 23:47:42;;;;;;;1.00;0.93;;;;;1.30;98090.00;;;;10430499;28;20741;-79
2023/01/16 23:52:44;;;;;;;4.37;1.73;;;;;1.40;98106.00;;;;10419455;28;20220;-79
2023/01/16 23:57:46;;;;;;;3.40;1.87;;;;;1.40;98107.00;;;;10378707;28;20198;-79
